Terminal Aerodrome Forecast
Issued by NWS Burlington, VT

Home | Current Version | Previous Version | Text Only | Print | Product List | Glossary On
Versions: 1 2 3 4 5 6 7 8 9 10 11 12 13 14 15
767
FTUS41 KBTV 241246 AAB
TAFBTV
TAF AMD
KBTV 241246Z 2413/2512 19015G25KT 1/4SM +SN VV014
      TEMPO 2413/2415 1SM -SN OVC020
     FM241500 18013G23KT 3SM -SN OVC035
      TEMPO 2415/2417 2SM -SN BR OVC025
     FM241700 18012G24KT 4SM -RA BR OVC025
     FM250100 19008KT P6SM -RA OVC020
     FM250400 29005KT P6SM VCSH OVC030
     FM250800 35005KT P6SM OVC050=

USA.gov is the U.S. government's official web portal to all federal, state and local government web resources and services.